Time;durP1;ratioP1;P1;durP2;ratioP2;P2;SDS_P1;SDS_P2;PMS_P1;PMS_P2;Temp;Humidity;BMP_temperature;BMP_pressure;BME280_temperature;BME280_humidity;BME280_pressure;Samples;Min_cycle;Max_cycle;Signal;HPM_P1;HPM_P2
2023/01/27 00:03:53;;;;;;;45.50;22.33;;;2.90;99.90;;;;;;10285435;28;20308;-79
2023/01/27 00:08:56;;;;;;;49.23;23.37;;;2.60;99.90;;;;;;10314971;28;20674;-78
2023/01/27 00:13:59;;;;;;;44.00;20.83;;;2.60;99.90;;;;;;10315434;28;20301;-78
2023/01/27 00:19:01;;;;;;;47.63;21.33;;;2.50;99.90;;;;;;10294555;28;20240;-79
2023/01/27 00:29:25;;;;;;;47.80;23.00;;;2.70;99.90;;;;;;10297699;28;20229;-79
2023/01/27 00:34:27;;;;;;;50.13;23.17;;;2.50;99.90;;;;;;10291410;28;20234;-79
2023/01/27 00:39:30;;;;;;;51.43;25.13;;;2.40;99.90;;;;;;10291437;28;20650;-79
2023/01/27 00:44:32;;;;;;;35.17;18.30;;;2.30;99.90;;;;;;10289816;28;20257;-78
2023/01/27 00:49:35;;;;;;;49.17;23.73;;;2.60;99.90;;;;;;10289458;28;20292;-79
2023/01/27 00:54:38;;;;;;;46.97;21.17;;;2.60;99.90;;;;;;10310077;28;20322;-78
2023/01/27 00:59:40;;;;;;;42.13;20.53;;;2.60;99.90;;;;;;10371853;28;20286;-78
2023/01/27 01:04:43;;;;;;;49.43;24.30;;;2.80;99.90;;;;;;10371543;28;20313;-79
2023/01/27 01:09:46;;;;;;;35.80;17.93;;;2.90;99.90;;;;;;10370448;28;20269;-79
2023/01/27 01:14:49;;;;;;;33.33;18.30;;;2.60;99.90;;;;;;10386206;28;20673;-78
2023/01/27 01:19:51;;;;;;;30.77;16.37;;;2.50;99.90;;;;;;10369786;28;20255;-78
2023/01/27 01:24:54;;;;;;;27.47;15.50;;;2.50;99.90;;;;;;10369566;28;20780;-78
2023/01/27 01:29:56;;;;;;;29.13;15.00;;;2.40;99.90;;;;;;10368961;28;20286;-79
2023/01/27 01:34:59;;;;;;;29.30;13.10;;;2.30;99.90;;;;;;10368834;28;20274;-78
2023/01/27 01:40:02;;;;;;;26.10;12.83;;;2.30;99.90;;;;;;10344065;28;20244;-78
2023/01/27 01:45:32;;;;;;;30.40;15.03;;;2.30;99.90;;;;;;10344741;28;20264;-79
2023/01/27 01:50:36;;;;;;;26.73;12.77;;;2.10;99.90;;;;;;10331822;28;20315;-79
2023/01/27 01:55:41;;;;;;;32.53;15.40;;;2.00;99.90;;;;;;10370826;28;20290;-79
2023/01/27 02:00:44;;;;;;;38.43;17.73;;;1.60;99.90;;;;;;10368367;28;20684;-79
2023/01/27 02:05:47;;;;;;;31.37;16.47;;;2.30;99.90;;;;;;10367792;28;20794;-78
2023/01/27 02:10:53;;;;;;;28.00;15.77;;;1.80;99.90;;;;;;10368158;28;20709;-78
2023/01/27 02:15:55;;;;;;;37.50;16.50;;;1.60;99.90;;;;;;10368165;28;20236;-78
2023/01/27 02:20:58;;;;;;;26.20;12.97;;;1.70;99.90;;;;;;10399383;28;20639;-79
2023/01/27 02:26:15;;;;;;;24.23;12.90;;;1.70;99.90;;;;;;10367961;28;20255;-79
2023/01/27 02:31:18;;;;;;;29.70;13.10;;;1.60;99.90;;;;;;10367945;28;20886;-79
2023/01/27 02:36:23;;;;;;;27.23;13.57;;;1.60;99.90;;;;;;10352587;28;20224;-78
2023/01/27 02:41:58;;;;;;;27.70;14.40;;;1.30;99.90;;;;;;10366051;28;20696;-79
2023/01/27 02:47:00;;;;;;;26.83;12.80;;;1.30;99.90;;;;;;10376711;28;20663;-79
2023/01/27 02:52:03;;;;;;;35.90;15.47;;;1.20;99.90;;;;;;10365045;28;20224;-78
2023/01/27 02:57:07;;;;;;;33.93;15.57;;;1.40;99.90;;;;;;10381817;28;20322;-78
2023/01/27 03:02:21;;;;;;;36.77;16.47;;;1.30;99.90;;;;;;10365126;28;20254;-78
2023/01/27 03:07:25;;;;;;;37.47;17.23;;;1.20;99.90;;;;;;10396317;28;20297;-79
2023/01/27 03:12:29;;;;;;;30.63;13.63;;;1.40;99.90;;;;;;10405867;28;20239;-78
2023/01/27 03:22:53;;;;;;;31.23;14.13;;;1.10;99.90;;;;;;10364609;28;20285;-78
2023/01/27 03:27:59;;;;;;;37.47;16.97;;;1.60;99.90;;;;;;10366554;28;20570;-79
2023/01/27 03:33:10;;;;;;;24.60;13.50;;;1.60;99.90;;;;;;10397796;28;20270;-78
2023/01/27 03:49:10;;;;;;;30.87;14.90;;;1.20;99.90;;;;;;10364584;28;20285;-78
2023/01/27 03:54:12;;;;;;;30.23;14.67;;;1.30;99.90;;;;;;10399225;28;20267;-79
2023/01/27 03:59:15;;;;;;;31.60;15.67;;;1.50;99.90;;;;;;10381804;28;20236;-79
2023/01/27 04:09:39;;;;;;;33.00;16.53;;;1.60;99.90;;;;;;10373764;28;20259;-79
2023/01/27 04:14:41;;;;;;;33.23;16.17;;;1.50;99.90;;;;;;10372986;28;20216;-78
2023/01/27 04:19:45;;;;;;;29.43;14.87;;;1.70;99.90;;;;;;10373368;28;20232;-78
2023/01/27 04:24:49;;;;;;;25.33;13.27;;;1.90;99.90;;;;;;10386305;28;20248;-79
2023/01/27 04:29:52;;;;;;;35.93;17.67;;;1.90;99.90;;;;;;10373250;28;20704;-79
2023/01/27 04:34:54;;;;;;;34.60;16.00;;;2.30;99.90;;;;;;10372715;28;20240;-78
2023/01/27 04:39:57;;;;;;;30.57;16.30;;;2.00;99.90;;;;;;10402887;28;20702;-78
2023/01/27 04:44:59;;;;;;;30.67;15.77;;;1.70;99.90;;;;;;10403059;28;20247;-78
2023/01/27 04:50:02;;;;;;;32.53;16.57;;;1.60;99.90;;;;;;10412564;28;20785;-79
2023/01/27 04:55:05;;;;;;;30.67;13.40;;;1.50;99.90;;;;;;10377909;28;20727;-78
2023/01/27 05:00:11;;;;;;;33.67;17.73;;;1.50;99.90;;;;;;10370765;28;20263;-79
2023/01/27 05:05:14;;;;;;;30.13;15.83;;;2.10;99.90;;;;;;10419298;28;20259;-79
2023/01/27 05:10:17;;;;;;;35.57;18.43;;;2.00;99.90;;;;;;10408872;28;20239;-79
2023/01/27 05:15:19;;;;;;;27.07;12.47;;;1.80;99.90;;;;;;10369498;28;20235;-79
2023/01/27 05:20:24;;;;;;;29.17;15.80;;;1.80;99.90;;;;;;10391791;28;20239;-79
2023/01/27 05:25:27;;;;;;;31.13;16.23;;;1.70;99.90;;;;;;10409849;28;20278;-79
2023/01/27 05:30:29;;;;;;;36.60;17.73;;;1.80;99.90;;;;;;10404860;28;20228;-79
2023/01/27 05:35:32;;;;;;;29.90;16.27;;;1.60;99.90;;;;;;10369367;28;20239;-79
2023/01/27 05:40:35;;;;;;;25.97;14.40;;;1.70;99.90;;;;;;10366122;28;20236;-79
2023/01/27 05:45:38;;;;;;;27.37;13.93;;;1.90;99.90;;;;;;10369846;28;20313;-79
2023/01/27 05:50:40;;;;;;;30.37;16.30;;;2.10;99.90;;;;;;10381123;28;20297;-79
2023/01/27 05:55:43;;;;;;;25.47;13.57;;;1.90;99.90;;;;;;10368968;28;20322;-78
2023/01/27 06:00:45;;;;;;;34.57;18.57;;;1.80;99.90;;;;;;10368706;28;20319;-79
2023/01/27 06:05:53;;;;;;;34.47;18.23;;;1.80;99.90;;;;;;10375099;28;20264;-79
2023/01/27 06:10:57;;;;;;;29.63;15.87;;;1.50;99.90;;;;;;10384233;28;20252;-78
2023/01/27 06:16:02;;;;;;;28.53;15.67;;;1.50;99.90;;;;;;10383321;28;20232;-79
2023/01/27 06:21:07;;;;;;;23.83;13.27;;;1.50;99.90;;;;;;10374613;28;20753;-79
2023/01/27 06:26:13;;;;;;;27.70;14.67;;;1.70;99.90;;;;;;10408042;28;20793;-79
2023/01/27 06:31:20;;;;;;;25.20;12.80;;;2.00;99.90;;;;;;10398782;28;20224;-79
2023/01/27 06:36:23;;;;;;;25.47;14.47;;;2.00;99.90;;;;;;10367057;28;20228;-79
2023/01/27 06:41:25;;;;;;;19.20;11.00;;;1.90;99.90;;;;;;10366803;28;20709;-79
2023/01/27 06:46:28;;;;;;;23.63;13.60;;;1.80;99.90;;;;;;10364721;28;20750;-79
2023/01/27 06:51:31;;;;;;;21.50;12.77;;;1.90;99.90;;;;;;10387753;28;20286;-79
2023/01/27 06:56:33;;;;;;;23.63;13.43;;;1.90;99.90;;;;;;10362429;28;20251;-79
2023/01/27 07:01:36;;;;;;;28.37;13.73;;;1.90;99.90;;;;;;10378780;28;20294;-79
2023/01/27 07:06:39;;;;;;;25.33;14.17;;;1.40;99.90;;;;;;10363820;28;20240;-79
2023/01/27 07:11:43;;;;;;;24.73;13.17;;;1.30;99.90;;;;;;10352425;28;20236;-79
2023/01/27 07:16:46;;;;;;;22.30;11.87;;;1.20;99.90;;;;;;10358603;28;20223;-79
2023/01/27 07:21:49;;;;;;;20.60;11.30;;;1.70;99.90;;;;;;10364805;28;20281;-79
2023/01/27 07:26:51;;;;;;;18.97;11.17;;;1.40;99.90;;;;;;10359628;28;20327;-79
2023/01/27 07:31:54;;;;;;;23.07;13.53;;;1.40;99.90;;;;;;10383861;28;20232;-79
2023/01/27 07:36:57;;;;;;;22.93;11.67;;;1.30;99.90;;;;;;10379222;28;20637;-79
2023/01/27 07:42:02;;;;;;;19.87;11.20;;;1.30;99.90;;;;;;10379362;28;20255;-79
2023/01/27 07:47:05;;;;;;;16.47;9.03;;;1.40;99.90;;;;;;10383706;28;20736;-79
2023/01/27 07:52:07;;;;;;;26.67;14.90;;;1.40;99.90;;;;;;10378574;28;20239;-79
2023/01/27 07:57:10;;;;;;;21.70;11.33;;;1.10;99.90;;;;;;10409559;28;20287;-79
2023/01/27 08:02:13;;;;;;;25.83;13.17;;;1.30;99.90;;;;;;10408527;28;20290;-79
2023/01/27 08:07:16;;;;;;;24.30;13.57;;;1.30;99.90;;;;;;10375018;28;20274;-79
2023/01/27 08:12:18;;;;;;;30.07;15.33;;;1.60;99.90;;;;;;10377696;28;20268;-79
2023/01/27 08:17:21;;;;;;;23.83;12.80;;;1.90;99.90;;;;;;10396127;28;20243;-79
2023/01/27 08:22:26;;;;;;;23.60;11.73;;;4.70;99.90;;;;;;10408485;28;20303;-80
2023/01/27 08:27:29;;;;;;;22.77;12.90;;;3.50;99.90;;;;;;10375648;28;20251;-79
2023/01/27 08:32:33;;;;;;;22.57;13.87;;;2.40;99.90;;;;;;10379943;28;20220;-79
2023/01/27 08:37:36;;;;;;;25.50;14.73;;;2.00;99.90;;;;;;10412247;28;20697;-79
2023/01/27 08:42:38;;;;;;;21.97;13.13;;;1.90;99.90;;;;;;10410845;28;20657;-80
2023/01/27 08:47:41;;;;;;;27.20;12.73;;;1.70;99.90;;;;;;10376059;28;20244;-79
2023/01/27 08:52:43;;;;;;;20.37;11.03;;;1.90;99.90;;;;;;10369577;28;20232;-79
2023/01/27 08:57:46;;;;;;;20.93;12.33;;;2.50;99.90;;;;;;10387415;28;20309;-80
2023/01/27 09:02:52;;;;;;;26.50;13.17;;;2.50;99.90;;;;;;10364948;28;20261;-79
2023/01/27 09:07:54;;;;;;;29.77;18.50;;;2.20;99.90;;;;;;10368885;28;20324;-79
2023/01/27 09:12:57;;;;;;;33.37;19.37;;;1.70;99.90;;;;;;10365629;28;20286;-79
2023/01/27 09:17:59;;;;;;;37.57;19.67;;;1.40;99.90;;;;;;10366528;28;20252;-79
2023/01/27 09:23:03;;;;;;;33.17;18.70;;;1.20;99.90;;;;;;10367392;28;20237;-79
2023/01/27 09:28:15;;;;;;;47.57;24.77;;;1.10;99.90;;;;;;10367639;28;20322;-79
2023/01/27 09:33:18;;;;;;;42.67;21.77;;;;;;;;;;10370119;28;20237;-79
2023/01/27 09:38:23;;;;;;;38.23;19.77;;;1.00;99.90;;;;;;10359197;28;20224;-79
2023/01/27 09:43:58;;;;;;;16.23;8.50;;;0.90;99.90;;;;;;10366856;28;20240;-79
2023/01/27 09:49:16;;;;;;;37.70;19.60;;;0.90;99.90;;;;;;10368155;28;20645;-79
2023/01/27 09:54:34;;;;;;;30.70;17.67;;;;;;;;;;10367523;28;20282;-79
2023/01/27 09:59:54;;;;;;;37.90;20.23;;;;;;;;;;10366589;28;20298;-79
2023/01/27 10:05:16;;;;;;;34.07;19.97;;;0.80;99.90;;;;;;10367565;28;20255;-79
2023/01/27 10:10:48;;;;;;;45.47;22.40;;;0.80;99.90;;;;;;10364695;28;20236;-79
2023/01/27 10:16:13;;;;;;;50.73;32.20;;;0.90;99.90;;;;;;10368383;28;20239;-79
2023/01/27 10:21:20;;;;;;;46.00;26.30;;;0.90;99.90;;;;;;10368451;28;20661;-79
2023/01/27 10:26:45;;;;;;;40.63;21.57;;;0.90;99.90;;;;;;10367559;28;20256;-79
2023/01/27 10:31:56;;;;;;;36.77;17.60;;;0.90;99.90;;;;;;10366842;28;20695;-79
2023/01/27 10:37:05;;;;;;;37.73;19.97;;;0.90;99.90;;;;;;10371052;28;21071;-79
2023/01/27 10:42:08;;;;;;;42.23;20.73;;;0.90;99.90;;;;;;10404353;28;20729;-79
2023/01/27 10:47:42;;;;;;;44.67;22.40;;;1.00;99.90;;;;;;10407396;28;20795;-79
2023/01/27 10:52:57;;;;;;;40.20;19.27;;;0.90;99.90;;;;;;10366421;28;20247;-79
2023/01/27 10:58:22;;;;;;;53.63;25.23;;;0.80;99.90;;;;;;10364209;28;20286;-79
2023/01/27 11:03:52;;;;;;;48.43;24.43;;;1.00;99.90;;;;;;10385507;28;20282;-79
2023/01/27 11:09:36;;;;;;;52.90;24.70;;;0.80;99.90;;;;;;10363979;28;20874;-79
2023/01/27 11:14:49;;;;;;;54.20;26.93;;;0.80;99.90;;;;;;10260378;28;21042;-80
2023/01/27 11:20:10;;;;;;;44.57;21.83;;;1.00;99.90;;;;;;10239430;28;20289;-80
2023/01/27 11:25:25;;;;;;;25.73;14.00;;;1.60;99.90;;;;;;10243770;28;20268;-80
2023/01/27 11:30:56;;;;;;;34.47;15.17;;;2.30;99.90;;;;;;10268179;28;20689;-79
2023/01/27 11:35:58;;;;;;;25.80;12.37;;;2.10;99.90;;;;;;10280820;28;20236;-79
2023/01/27 11:41:01;;;;;;;43.13;20.00;;;3.20;99.90;;;;;;10280758;28;20249;-80
2023/01/27 11:46:06;;;;;;;28.77;16.80;;;3.00;99.90;;;;;;10262931;28;20764;-80
2023/01/27 11:51:37;;;;;;;30.27;18.90;;;2.50;99.90;;;;;;10359496;28;20609;-79
2023/01/27 11:56:44;;;;;;;34.47;21.23;;;2.20;99.90;;;;;;10395913;28;20300;-80
2023/01/27 12:02:22;;;;;;;37.00;18.70;;;2.60;99.90;;;;;;10365997;28;20251;-79
2023/01/27 12:07:57;;;;;;;32.10;18.47;;;2.40;99.90;;;;;;10351714;28;20391;-79
2023/01/27 12:13:26;;;;;;;27.80;16.60;;;2.20;99.90;;;;;;10380270;28;20245;-80
2023/01/27 12:18:33;;;;;;;29.53;16.33;;;2.10;99.90;;;;;;10335688;28;20924;-79
2023/01/27 12:23:45;;;;;;;23.73;12.00;;;2.30;99.90;;;;;;10401525;28;20297;-87
2023/01/27 12:28:52;;;;;;;30.67;16.53;;;;;;;;;;10369376;28;20453;-87
2023/01/27 12:34:06;;;;;;;31.07;17.83;;;4.40;99.90;;;;;;10365466;28;20702;-87
2023/01/27 12:39:36;;;;;;;36.60;20.03;;;3.40;99.90;;;;;;10370942;28;20223;-87
2023/01/27 12:44:44;;;;;;;32.90;18.23;;;3.10;99.90;;;;;;10370493;28;20267;-87
2023/01/27 12:49:47;;;;;;;35.53;20.47;;;2.70;99.90;;;;;;10369907;28;20519;-87
2023/01/27 12:54:52;;;;;;;36.40;20.83;;;2.50;99.90;;;;;;10376783;28;20764;-87
2023/01/27 12:59:56;;;;;;;26.27;15.60;;;2.30;99.90;;;;;;10370226;28;20289;-87
2023/01/27 13:05:03;;;;;;;32.87;18.50;;;2.20;99.90;;;;;;10370471;28;20604;-87
2023/01/27 13:10:20;;;;;;;29.37;18.47;;;2.50;99.90;;;;;;10369487;28;20284;-78
2023/01/27 13:15:27;;;;;;;30.30;16.23;;;2.40;99.90;;;;;;10370663;28;20255;-78
2023/01/27 13:20:50;;;;;;;27.37;14.83;;;2.80;99.90;;;;;;10371471;28;20292;-78
2023/01/27 13:26:08;;;;;;;29.53;17.87;;;3.20;99.90;;;;;;10386890;28;20836;-76
2023/01/27 13:31:37;;;;;;;27.70;17.30;;;2.20;99.90;;;;;;10383594;28;20234;-77
2023/01/27 13:37:01;;;;;;;35.77;19.07;;;1.60;99.90;;;;;;10369209;28;20256;-77
2023/01/27 13:42:10;;;;;;;34.67;19.97;;;1.30;99.90;;;;;;10375697;28;20305;-76
2023/01/27 13:47:44;;;;;;;41.47;22.57;;;1.10;99.90;;;;;;10371267;28;20259;-77
2023/01/27 13:52:53;;;;;;;39.93;21.40;;;1.10;99.90;;;;;;10367586;28;20240;-77
2023/01/27 13:59:03;;;;;;;40.90;22.07;;;1.10;99.90;;;;;;10376087;28;20290;-78
2023/01/27 14:04:29;;;;;;;41.93;23.53;;;1.00;99.90;;;;;;10239472;29;20301;-77
2023/01/27 14:09:49;;;;;;;45.93;25.63;;;0.70;99.90;;;;;;10242761;28;20374;-79
2023/01/27 14:15:26;;;;;;;48.13;26.10;;;0.70;99.90;;;;;;10242696;28;20242;-79
2023/01/27 14:20:50;;;;;;;53.87;27.87;;;0.70;99.90;;;;;;10240989;28;20425;-78
2023/01/27 14:26:12;;;;;;;61.13;31.27;;;0.70;99.90;;;;;;10202783;28;20318;-77
2023/01/27 14:31:48;;;;;;;61.80;29.13;;;0.70;99.90;;;;;;10226683;28;20234;-78
2023/01/27 14:37:05;;;;;;;59.73;31.80;;;0.70;99.90;;;;;;10350783;28;20240;-78
2023/01/27 14:42:30;;;;;;;61.37;31.03;;;0.70;99.90;;;;;;10369038;28;20294;-78
2023/01/27 14:47:39;;;;;;;67.40;31.53;;;0.70;99.90;;;;;;10366110;28;20720;-79
2023/01/27 14:53:17;;;;;;;59.73;32.77;;;0.70;99.90;;;;;;10366765;28;20258;-79
2023/01/27 14:58:28;;;;;;;60.27;31.23;;;0.70;99.90;;;;;;10350537;28;20897;-78
2023/01/27 15:03:33;;;;;;;65.00;32.40;;;0.70;99.90;;;;;;10366552;28;20244;-79
2023/01/27 15:08:48;;;;;;;73.70;34.40;;;0.70;99.90;;;;;;10364135;28;20263;-78
2023/01/27 15:14:02;;;;;;;62.63;33.03;;;0.70;99.90;;;;;;10362821;28;20270;-78
2023/01/27 15:19:46;;;;;;;70.03;35.97;;;0.80;99.90;;;;;;10383139;28;20267;-79
2023/01/27 15:24:49;;;;;;;61.80;34.10;;;0.80;99.90;;;;;;10387952;28;20286;-79
2023/01/27 15:29:51;;;;;;;69.30;36.33;;;0.70;99.90;;;;;;10366131;28;20264;-79
2023/01/27 15:35:35;;;;;;;69.30;35.43;;;0.70;99.90;;;;;;10363538;28;20898;-79
2023/01/27 15:41:03;;;;;;;56.80;32.20;;;0.70;99.90;;;;;;10362250;28;20259;-78
2023/01/27 15:46:41;;;;;;;61.47;34.30;;;0.70;99.90;;;;;;10364992;28;20255;-79
2023/01/27 15:51:44;;;;;;;56.17;33.50;;;0.70;99.90;;;;;;10325239;28;20224;-78
2023/01/27 15:56:51;;;;;;;55.67;30.03;;;0.70;99.90;;;;;;10370869;28;20602;-77
2023/01/27 16:02:18;;;;;;;56.73;32.23;;;0.70;99.90;;;;;;10373079;28;20200;-81
2023/01/27 16:07:39;;;;;;;42.77;26.37;;;0.70;99.90;;;;;;10375317;28;20673;-78
2023/01/27 16:12:46;;;;;;;51.47;28.40;;;0.70;99.90;;;;;;10375537;28;20243;-82
2023/01/27 16:17:58;;;;;;;45.87;27.10;;;0.70;99.90;;;;;;10371030;28;20228;-81
2023/01/27 16:23:07;;;;;;;47.97;26.87;;;0.70;99.90;;;;;;10370327;28;20239;-83
2023/01/27 16:28:23;;;;;;;50.30;26.70;;;0.70;99.90;;;;;;10372693;28;20259;-82
2023/01/27 16:33:40;;;;;;;44.30;26.77;;;0.70;99.90;;;;;;10371269;28;20231;-83
2023/01/27 16:38:44;;;;;;;43.00;23.80;;;0.70;99.90;;;;;;10372855;28;20231;-82
2023/01/27 16:43:56;;;;;;;44.13;25.53;;;0.60;99.90;;;;;;10404715;28;20259;-83
2023/01/27 16:49:03;;;;;;;47.33;26.50;;;0.60;99.90;;;;;;10371665;28;20721;-83
2023/01/27 16:54:30;;;;;;;42.03;25.30;;;0.60;99.90;;;;;;10373672;28;20236;-82
2023/01/27 16:59:36;;;;;;;38.83;24.70;;;0.50;99.90;;;;;;10371245;28;20235;-81
2023/01/27 17:04:46;;;;;;;47.77;25.43;;;0.50;99.90;;;;;;10366268;28;20832;-81
2023/01/27 17:09:51;;;;;;;35.47;23.00;;;0.50;99.90;;;;;;10369886;28;20252;-82
2023/01/27 17:14:54;;;;;;;38.37;21.70;;;0.50;99.90;;;;;;10375176;28;20651;-85
2023/01/27 17:20:05;;;;;;;37.07;22.27;;;0.40;99.90;;;;;;10358433;28;20653;-82
2023/01/27 17:25:30;;;;;;;29.33;19.53;;;0.40;99.90;;;;;;10368051;28;20688;-84
2023/01/27 17:30:36;;;;;;;28.87;17.77;;;0.40;99.90;;;;;;10369838;28;20259;-82
2023/01/27 17:35:39;;;;;;;24.03;14.90;;;0.30;99.90;;;;;;10369211;28;20223;-83
2023/01/27 17:40:45;;;;;;;33.00;18.07;;;0.30;99.90;;;;;;10369710;28;20236;-83
2023/01/27 17:45:51;;;;;;;26.57;15.97;;;0.30;99.90;;;;;;10369908;28;20240;-82
2023/01/27 17:50:53;;;;;;;29.00;14.70;;;0.30;99.90;;;;;;10398893;28;20259;-82
2023/01/27 17:55:56;;;;;;;19.83;13.87;;;0.30;99.90;;;;;;10371527;28;20268;-82
2023/01/27 18:00:59;;;;;;;18.70;13.23;;;0.20;99.90;;;;;;10367624;28;20258;-82
2023/01/27 18:06:04;;;;;;;17.53;12.60;;;0.10;99.90;;;;;;10367584;28;20812;-83
2023/01/27 18:11:09;;;;;;;17.90;12.40;;;;;;;;;;10368642;28;20675;-82
2023/01/27 18:16:14;;;;;;;23.73;13.77;;;0.10;99.90;;;;;;10374071;28;20236;-82
2023/01/27 18:21:24;;;;;;;14.67;11.17;;;0.00;99.90;;;;;;10364431;28;20491;-82
2023/01/27 18:26:47;;;;;;;18.57;13.20;;;0.00;99.90;;;;;;10351357;28;20314;-82
2023/01/27 18:32:07;;;;;;;22.43;13.37;;;0.00;99.90;;;;;;10382065;28;20243;-82
2023/01/27 18:37:31;;;;;;;13.10;10.40;;;-0.10;99.90;;;;;;10395680;28;20242;-83
2023/01/27 18:42:34;;;;;;;14.27;9.80;;;-0.10;99.90;;;;;;10373815;28;20239;-82
2023/01/27 18:47:37;;;;;;;18.97;11.83;;;-0.20;99.90;;;;;;10365881;28;20313;-84
2023/01/27 18:52:40;;;;;;;17.47;11.87;;;-0.20;99.90;;;;;;10364937;28;20262;-84
2023/01/27 18:57:46;;;;;;;19.33;13.17;;;-0.30;99.90;;;;;;10363639;28;20271;-84
2023/01/27 19:02:51;;;;;;;19.80;13.83;;;-0.30;99.90;;;;;;10382226;28;20648;-84
2023/01/27 19:07:54;;;;;;;23.70;15.10;;;-0.20;99.90;;;;;;10366801;28;20405;-84
2023/01/27 19:12:59;;;;;;;14.40;9.17;;;-0.40;99.90;;;;;;10369125;28;20243;-84
2023/01/27 19:18:25;;;;;;;13.93;8.73;;;-0.40;99.90;;;;;;10356320;28;20637;-83
2023/01/27 19:23:28;;;;;;;11.97;7.87;;;0.70;99.90;;;;;;10369718;28;20235;-85
2023/01/27 19:28:34;;;;;;;10.37;7.27;;;1.10;99.90;;;;;;10381034;28;20694;-84
2023/01/27 19:33:40;;;;;;;15.37;8.77;;;0.70;99.90;;;;;;10381797;28;20671;-85
2023/01/27 19:38:43;;;;;;;10.83;7.63;;;;;;;;;;10357990;28;20240;-85
2023/01/27 19:43:48;;;;;;;8.80;5.80;;;2.30;99.90;;;;;;10365944;28;20696;-86
2023/01/27 19:48:51;;;;;;;12.40;7.93;;;0.90;99.90;;;;;;10389198;28;20259;-80
2023/01/27 19:53:54;;;;;;;9.57;6.43;;;0.00;99.90;;;;;;10366209;28;20228;-79
2023/01/27 19:58:57;;;;;;;14.17;7.60;;;-0.20;99.90;;;;;;10366004;28;20633;-80
2023/01/27 20:04:00;;;;;;;11.17;7.90;;;-0.30;99.90;;;;;;10363511;28;20733;-81
2023/01/27 20:09:03;;;;;;;13.73;8.40;;;-0.40;99.90;;;;;;10362814;28;20792;-80
2023/01/27 20:14:17;;;;;;;9.63;8.13;;;-0.40;99.90;;;;;;10362474;28;20270;-82
2023/01/27 20:19:21;;;;;;;10.93;8.03;;;-0.50;99.90;;;;;;10362685;28;20270;-85
2023/01/27 20:24:24;;;;;;;10.90;7.53;;;-0.50;99.90;;;;;;10378110;28;20240;-82
2023/01/27 20:29:28;;;;;;;11.23;7.80;;;-0.50;99.90;;;;;;10366718;28;20252;-82
2023/01/27 20:34:31;;;;;;;10.63;8.60;;;-0.40;99.90;;;;;;10365207;28;20259;-83
2023/01/27 20:39:34;;;;;;;8.07;7.17;;;-0.50;99.90;;;;;;10368823;28;20309;-83
2023/01/27 20:44:37;;;;;;;11.77;8.57;;;-0.50;99.90;;;;;;10372851;28;20239;-83
2023/01/27 20:49:40;;;;;;;10.67;8.00;;;-0.50;99.90;;;;;;10378677;28;20260;-83
2023/01/27 20:54:43;;;;;;;10.43;7.63;;;-0.70;99.90;;;;;;10372843;28;20286;-83
2023/01/27 20:59:46;;;;;;;6.57;3.73;;;-0.80;99.90;;;;;;10371613;28;20309;-82
2023/01/27 21:04:49;;;;;;;11.83;7.50;;;-0.90;99.90;;;;;;10372926;28;20298;-82
2023/01/27 21:09:55;;;;;;;8.53;6.67;;;-1.00;99.90;;;;;;10385993;28;20282;-82
2023/01/27 21:14:57;;;;;;;11.10;7.40;;;-0.70;99.90;;;;;;10413136;28;20238;-82
2023/01/27 21:20:00;;;;;;;8.80;6.23;;;-0.90;99.90;;;;;;10393504;28;20656;-81
2023/01/27 21:25:03;;;;;;;9.80;7.03;;;-0.70;99.90;;;;;;10378476;28;20257;-82
2023/01/27 21:30:07;;;;;;;9.70;6.50;;;-0.80;99.90;;;;;;10370459;28;20282;-82
2023/01/27 21:35:09;;;;;;;12.20;7.80;;;-0.60;99.90;;;;;;10415575;28;20200;-82
2023/01/27 21:40:12;;;;;;;10.67;7.67;;;-0.20;99.90;;;;;;10371584;28;20232;-82
2023/01/27 21:45:15;;;;;;;9.00;6.67;;;-0.20;99.90;;;;;;10382194;28;20235;-82
2023/01/27 21:50:19;;;;;;;10.80;9.43;;;-0.30;99.90;;;;;;10384599;28;20676;-82
2023/01/27 21:55:27;;;;;;;12.00;10.70;;;-0.80;99.90;;;;;;10369782;28;20256;-81
2023/01/27 22:00:29;;;;;;;13.70;11.00;;;-1.00;99.90;;;;;;10370094;28;20290;-81
2023/01/27 22:05:35;;;;;;;10.47;8.33;;;-1.00;99.90;;;;;;10369775;28;20976;-81
2023/01/27 22:10:37;;;;;;;8.03;6.63;;;-0.80;99.90;;;;;;10369793;28;20259;-81
2023/01/27 22:15:40;;;;;;;7.27;5.53;;;-0.90;99.90;;;;;;10355498;28;20247;-81
2023/01/27 22:20:42;;;;;;;5.80;5.10;;;-0.90;99.90;;;;;;10379270;28;20292;-81
2023/01/27 22:25:52;;;;;;;7.63;4.50;;;-0.90;99.90;;;;;;10386723;28;20639;-80
2023/01/27 22:30:59;;;;;;;5.90;4.23;;;-1.00;99.90;;;;;;10368528;28;20726;-80
2023/01/27 22:36:04;;;;;;;6.17;3.93;;;-1.10;99.90;;;;;;10369507;28;20234;-80
2023/01/27 22:41:06;;;;;;;5.63;3.67;;;-1.00;99.90;;;;;;10368286;28;20266;-81
2023/01/27 22:46:09;;;;;;;4.73;2.97;;;-0.80;99.90;;;;;;10371036;28;20746;-81
2023/01/27 22:51:11;;;;;;;3.93;3.53;;;-0.90;99.90;;;;;;10373864;28;20328;-81
2023/01/27 22:56:14;;;;;;;4.27;3.20;;;-0.60;99.90;;;;;;10360966;28;20268;-81
2023/01/27 23:01:16;;;;;;;3.87;3.33;;;-0.80;99.90;;;;;;10364458;28;20239;-81
2023/01/27 23:06:19;;;;;;;3.63;3.20;;;-0.70;99.90;;;;;;10378374;28;20296;-81
2023/01/27 23:11:22;;;;;;;5.97;3.20;;;-0.80;99.90;;;;;;10375908;28;20251;-82
2023/01/27 23:16:24;;;;;;;4.87;3.60;;;-0.70;99.90;;;;;;10376902;28;20231;-81
2023/01/27 23:21:28;;;;;;;5.03;3.57;;;-0.70;99.90;;;;;;10388450;28;20238;-81
2023/01/27 23:26:30;;;;;;;3.73;3.40;;;-0.80;99.90;;;;;;10365262;28;20243;-80
2023/01/27 23:31:33;;;;;;;4.57;3.20;;;-0.70;99.90;;;;;;10366287;28;20354;-80
2023/01/27 23:36:36;;;;;;;4.60;3.13;;;;;;;;;;10404510;28;20231;-80
2023/01/27 23:41:39;;;;;;;7.70;3.17;;;-0.20;99.90;;;;;;10406306;28;20244;-80
2023/01/27 23:46:42;;;;;;;4.43;2.80;;;-0.30;99.90;;;;;;10375700;28;20270;-80
2023/01/27 23:51:44;;;;;;;5.97;3.60;;;-0.30;99.90;;;;;;10366741;28;20240;-80
2023/01/27 23:56:47;;;;;;;5.87;3.10;;;-0.70;99.90;;;;;;10368697;28;20278;-80
